sensor_id;sensor_type;location;lat;lon;timestamp;P1;durP1;ratioP1;P2;durP2;ratioP2
59880;SDS011;45751;51.380;10.326;2022-07-23T00:00:16;12.57;;;5.03;;
59880;SDS011;45751;51.380;10.326;2022-07-23T00:02:43;13.52;;;5.30;;
59880;SDS011;45751;51.380;10.326;2022-07-23T00:05:10;16.20;;;6.28;;
59880;SDS011;45751;51.380;10.326;2022-07-23T00:07:38;12.98;;;5.78;;
59880;SDS011;45751;51.380;10.326;2022-07-23T00:10:05;15.50;;;5.93;;
59880;SDS011;45751;51.380;10.326;2022-07-23T00:12:32;12.00;;;5.80;;
59880;SDS011;45751;51.380;10.326;2022-07-23T00:14:59;18.00;;;6.50;;
59880;SDS011;45751;51.380;10.326;2022-07-23T00:17:26;18.63;;;7.45;;
59880;SDS011;45751;51.380;10.326;2022-07-23T00:19:53;20.40;;;7.50;;
59880;SDS011;45751;51.380;10.326;2022-07-23T00:22:20;19.70;;;6.93;;
59880;SDS011;45751;51.380;10.326;2022-07-23T00:24:47;18.10;;;6.75;;
59880;SDS011;45751;51.380;10.326;2022-07-23T00:27:34;17.60;;;6.38;;
59880;SDS011;45751;51.380;10.326;2022-07-23T00:30:01;18.90;;;7.28;;
59880;SDS011;45751;51.380;10.326;2022-07-23T00:32:28;16.70;;;7.05;;
59880;SDS011;45751;51.380;10.326;2022-07-23T00:35:15;16.08;;;7.53;;
59880;SDS011;45751;51.380;10.326;2022-07-23T00:37:42;18.90;;;7.63;;
59880;SDS011;45751;51.380;10.326;2022-07-23T00:40:09;21.58;;;7.43;;
59880;SDS011;45751;51.380;10.326;2022-07-23T00:42:37;20.00;;;6.78;;
59880;SDS011;45751;51.380;10.326;2022-07-23T00:45:04;17.27;;;7.63;;
59880;SDS011;45751;51.380;10.326;2022-07-23T00:47:32;15.10;;;6.32;;
59880;SDS011;45751;51.380;10.326;2022-07-23T00:49:59;18.60;;;7.03;;
59880;SDS011;45751;51.380;10.326;2022-07-23T00:52:26;19.38;;;7.70;;
59880;SDS011;45751;51.380;10.326;2022-07-23T00:54:53;18.50;;;6.90;;
59880;SDS011;45751;51.380;10.326;2022-07-23T00:57:20;16.88;;;6.88;;
59880;SDS011;45751;51.380;10.326;2022-07-23T00:59:53;19.23;;;7.68;;
59880;SDS011;45751;51.380;10.326;2022-07-23T01:02:21;20.88;;;7.40;;
59880;SDS011;45751;51.380;10.326;2022-07-23T01:04:48;20.60;;;8.10;;
59880;SDS011;45751;51.380;10.326;2022-07-23T01:07:15;17.75;;;7.20;;
59880;SDS011;45751;51.380;10.326;2022-07-23T01:09:43;17.58;;;7.60;;
59880;SDS011;45751;51.380;10.326;2022-07-23T01:12:11;18.38;;;7.65;;
59880;SDS011;45751;51.380;10.326;2022-07-23T01:14:38;17.13;;;6.80;;
59880;SDS011;45751;51.380;10.326;2022-07-23T01:17:05;17.45;;;6.82;;
59880;SDS011;45751;51.380;10.326;2022-07-23T01:19:32;15.70;;;7.40;;
59880;SDS011;45751;51.380;10.326;2022-07-23T01:22:00;16.92;;;7.90;;
59880;SDS011;45751;51.380;10.326;2022-07-23T01:24:28;16.08;;;7.18;;
59880;SDS011;45751;51.380;10.326;2022-07-23T01:27:04;16.95;;;7.30;;
59880;SDS011;45751;51.380;10.326;2022-07-23T01:29:34;19.48;;;7.78;;
59880;SDS011;45751;51.380;10.326;2022-07-23T01:32:06;16.42;;;7.78;;
59880;SDS011;45751;51.380;10.326;2022-07-23T01:34:33;17.38;;;6.80;;
59880;SDS011;45751;51.380;10.326;2022-07-23T01:37:00;16.50;;;7.45;;
59880;SDS011;45751;51.380;10.326;2022-07-23T01:39:28;16.00;;;7.80;;
59880;SDS011;45751;51.380;10.326;2022-07-23T01:41:55;18.52;;;7.40;;
59880;SDS011;45751;51.380;10.326;2022-07-23T01:44:23;15.63;;;7.05;;
59880;SDS011;45751;51.380;10.326;2022-07-23T01:46:50;18.27;;;8.00;;
59880;SDS011;45751;51.380;10.326;2022-07-23T01:49:19;17.23;;;7.47;;
59880;SDS011;45751;51.380;10.326;2022-07-23T01:52:18;17.45;;;7.63;;
59880;SDS011;45751;51.380;10.326;2022-07-23T01:54:48;18.27;;;7.30;;
59880;SDS011;45751;51.380;10.326;2022-07-23T01:57:16;19.58;;;7.60;;
59880;SDS011;45751;51.380;10.326;2022-07-23T01:59:43;16.58;;;7.68;;
59880;SDS011;45751;51.380;10.326;2022-07-23T02:02:10;20.25;;;7.72;;
59880;SDS011;45751;51.380;10.326;2022-07-23T02:04:37;21.88;;;9.25;;
59880;SDS011;45751;51.380;10.326;2022-07-23T02:07:04;20.98;;;8.05;;
59880;SDS011;45751;51.380;10.326;2022-07-23T02:09:31;19.52;;;8.85;;
59880;SDS011;45751;51.380;10.326;2022-07-23T02:11:58;19.02;;;8.68;;
59880;SDS011;45751;51.380;10.326;2022-07-23T02:14:26;18.52;;;7.72;;
59880;SDS011;45751;51.380;10.326;2022-07-23T02:16:53;17.23;;;8.38;;
59880;SDS011;45751;51.380;10.326;2022-07-23T02:19:20;18.60;;;7.43;;
59880;SDS011;45751;51.380;10.326;2022-07-23T02:21:47;19.73;;;7.55;;
59880;SDS011;45751;51.380;10.326;2022-07-23T02:24:14;22.38;;;8.80;;
59880;SDS011;45751;51.380;10.326;2022-07-23T02:26:42;18.17;;;8.35;;
59880;SDS011;45751;51.380;10.326;2022-07-23T02:29:10;20.52;;;9.68;;
59880;SDS011;45751;51.380;10.326;2022-07-23T02:31:37;18.88;;;8.27;;
59880;SDS011;45751;51.380;10.326;2022-07-23T02:34:05;18.88;;;8.25;;
59880;SDS011;45751;51.380;10.326;2022-07-23T02:36:33;20.38;;;8.35;;
59880;SDS011;45751;51.380;10.326;2022-07-23T02:39:02;19.15;;;7.65;;
59880;SDS011;45751;51.380;10.326;2022-07-23T02:41:32;23.10;;;8.80;;
59880;SDS011;45751;51.380;10.326;2022-07-23T02:43:59;16.02;;;7.57;;
59880;SDS011;45751;51.380;10.326;2022-07-23T02:46:26;17.45;;;7.30;;
59880;SDS011;45751;51.380;10.326;2022-07-23T02:48:54;17.75;;;7.85;;
59880;SDS011;45751;51.380;10.326;2022-07-23T02:51:21;17.52;;;8.07;;
59880;SDS011;45751;51.380;10.326;2022-07-23T02:53:53;20.45;;;8.45;;
59880;SDS011;45751;51.380;10.326;2022-07-23T02:56:20;18.65;;;8.02;;
59880;SDS011;45751;51.380;10.326;2022-07-23T02:58:47;17.17;;;8.57;;
59880;SDS011;45751;51.380;10.326;2022-07-23T03:01:15;18.17;;;7.72;;
59880;SDS011;45751;51.380;10.326;2022-07-23T03:03:46;18.35;;;8.13;;
59880;SDS011;45751;51.380;10.326;2022-07-23T03:06:13;16.65;;;7.32;;
59880;SDS011;45751;51.380;10.326;2022-07-23T03:08:40;18.48;;;8.63;;
59880;SDS011;45751;51.380;10.326;2022-07-23T03:11:07;16.90;;;6.53;;
59880;SDS011;45751;51.380;10.326;2022-07-23T03:13:38;12.63;;;5.18;;
59880;SDS011;45751;51.380;10.326;2022-07-23T03:16:05;15.35;;;5.25;;
59880;SDS011;45751;51.380;10.326;2022-07-23T03:18:35;10.25;;;3.42;;
59880;SDS011;45751;51.380;10.326;2022-07-23T03:21:06;8.52;;;3.45;;
59880;SDS011;45751;51.380;10.326;2022-07-23T03:23:33;7.03;;;2.45;;
59880;SDS011;45751;51.380;10.326;2022-07-23T03:26:00;7.28;;;2.25;;
59880;SDS011;45751;51.380;10.326;2022-07-23T03:28:28;6.10;;;1.92;;
59880;SDS011;45751;51.380;10.326;2022-07-23T03:30:54;8.98;;;3.08;;
59880;SDS011;45751;51.380;10.326;2022-07-23T03:33:21;9.73;;;3.78;;
59880;SDS011;45751;51.380;10.326;2022-07-23T03:35:48;10.95;;;3.70;;
59880;SDS011;45751;51.380;10.326;2022-07-23T03:38:25;9.57;;;3.80;;
59880;SDS011;45751;51.380;10.326;2022-07-23T03:40:53;10.98;;;4.07;;
59880;SDS011;45751;51.380;10.326;2022-07-23T03:43:21;12.73;;;4.93;;
59880;SDS011;45751;51.380;10.326;2022-07-23T03:45:48;11.13;;;4.10;;
59880;SDS011;45751;51.380;10.326;2022-07-23T03:48:14;12.70;;;5.05;;
59880;SDS011;45751;51.380;10.326;2022-07-23T03:50:43;12.85;;;6.15;;
59880;SDS011;45751;51.380;10.326;2022-07-23T03:53:10;16.00;;;6.65;;
59880;SDS011;45751;51.380;10.326;2022-07-23T03:55:37;16.95;;;7.72;;
59880;SDS011;45751;51.380;10.326;2022-07-23T03:58:04;21.23;;;8.98;;
59880;SDS011;45751;51.380;10.326;2022-07-23T04:00:31;17.13;;;8.55;;
59880;SDS011;45751;51.380;10.326;2022-07-23T04:02:58;18.50;;;8.68;;
59880;SDS011;45751;51.380;10.326;2022-07-23T04:05:26;21.55;;;9.88;;
59880;SDS011;45751;51.380;10.326;2022-07-23T04:08:02;22.40;;;9.65;;
59880;SDS011;45751;51.380;10.326;2022-07-23T04:10:29;18.75;;;8.25;;
59880;SDS011;45751;51.380;10.326;2022-07-23T04:12:56;21.35;;;9.07;;
59880;SDS011;45751;51.380;10.326;2022-07-23T04:15:22;20.55;;;10.13;;
59880;SDS011;45751;51.380;10.326;2022-07-23T04:17:49;22.40;;;8.60;;
59880;SDS011;45751;51.380;10.326;2022-07-23T04:20:18;20.70;;;9.10;;
59880;SDS011;45751;51.380;10.326;2022-07-23T04:22:52;23.13;;;9.52;;
59880;SDS011;45751;51.380;10.326;2022-07-23T04:25:20;16.85;;;8.18;;
59880;SDS011;45751;51.380;10.326;2022-07-23T04:27:48;18.40;;;8.75;;
59880;SDS011;45751;51.380;10.326;2022-07-23T04:30:16;23.23;;;9.07;;
59880;SDS011;45751;51.380;10.326;2022-07-23T04:32:43;23.38;;;9.02;;
59880;SDS011;45751;51.380;10.326;2022-07-23T04:35:22;20.67;;;8.77;;
59880;SDS011;45751;51.380;10.326;2022-07-23T04:37:51;19.77;;;9.60;;
59880;SDS011;45751;51.380;10.326;2022-07-23T04:40:18;18.77;;;8.60;;
59880;SDS011;45751;51.380;10.326;2022-07-23T04:42:48;26.27;;;9.90;;
59880;SDS011;45751;51.380;10.326;2022-07-23T04:45:15;23.10;;;9.13;;
59880;SDS011;45751;51.380;10.326;2022-07-23T04:47:43;19.77;;;9.30;;
59880;SDS011;45751;51.380;10.326;2022-07-23T04:50:11;21.25;;;9.98;;
59880;SDS011;45751;51.380;10.326;2022-07-23T04:52:39;23.70;;;10.90;;
59880;SDS011;45751;51.380;10.326;2022-07-23T04:55:06;22.55;;;9.75;;
59880;SDS011;45751;51.380;10.326;2022-07-23T04:57:33;20.55;;;9.18;;
59880;SDS011;45751;51.380;10.326;2022-07-23T05:00:00;22.13;;;8.98;;
59880;SDS011;45751;51.380;10.326;2022-07-23T05:02:31;20.75;;;9.27;;
59880;SDS011;45751;51.380;10.326;2022-07-23T05:04:58;21.88;;;9.80;;
59880;SDS011;45751;51.380;10.326;2022-07-23T05:07:25;21.02;;;8.18;;
59880;SDS011;45751;51.380;10.326;2022-07-23T05:09:53;22.00;;;9.82;;
59880;SDS011;45751;51.380;10.326;2022-07-23T05:12:19;21.30;;;9.52;;
59880;SDS011;45751;51.380;10.326;2022-07-23T05:14:46;21.20;;;9.25;;
59880;SDS011;45751;51.380;10.326;2022-07-23T05:17:13;23.63;;;9.35;;
59880;SDS011;45751;51.380;10.326;2022-07-23T05:19:40;21.35;;;9.02;;
59880;SDS011;45751;51.380;10.326;2022-07-23T05:22:08;21.60;;;9.30;;
59880;SDS011;45751;51.380;10.326;2022-07-23T05:24:34;17.25;;;9.00;;
59880;SDS011;45751;51.380;10.326;2022-07-23T05:27:02;22.50;;;9.77;;
59880;SDS011;45751;51.380;10.326;2022-07-23T05:29:29;20.95;;;8.63;;
59880;SDS011;45751;51.380;10.326;2022-07-23T05:31:55;21.40;;;9.77;;
59880;SDS011;45751;51.380;10.326;2022-07-23T05:34:22;20.27;;;8.48;;
59880;SDS011;45751;51.380;10.326;2022-07-23T05:36:49;19.52;;;9.20;;
59880;SDS011;45751;51.380;10.326;2022-07-23T05:39:16;24.42;;;8.43;;
59880;SDS011;45751;51.380;10.326;2022-07-23T05:41:44;20.90;;;9.48;;
59880;SDS011;45751;51.380;10.326;2022-07-23T05:44:12;19.75;;;8.95;;
59880;SDS011;45751;51.380;10.326;2022-07-23T05:46:41;23.20;;;9.00;;
59880;SDS011;45751;51.380;10.326;2022-07-23T05:49:13;20.17;;;9.07;;
59880;SDS011;45751;51.380;10.326;2022-07-23T05:52:04;20.83;;;9.30;;
59880;SDS011;45751;51.380;10.326;2022-07-23T05:54:51;21.60;;;9.30;;
59880;SDS011;45751;51.380;10.326;2022-07-23T05:57:18;20.38;;;8.60;;
59880;SDS011;45751;51.380;10.326;2022-07-23T05:59:51;20.65;;;9.00;;
59880;SDS011;45751;51.380;10.326;2022-07-23T06:02:21;24.88;;;9.77;;
59880;SDS011;45751;51.380;10.326;2022-07-23T06:04:48;22.02;;;8.95;;
59880;SDS011;45751;51.380;10.326;2022-07-23T06:07:26;21.40;;;9.65;;
59880;SDS011;45751;51.380;10.326;2022-07-23T06:09:53;19.70;;;8.70;;
59880;SDS011;45751;51.380;10.326;2022-07-23T06:12:21;19.20;;;8.93;;
59880;SDS011;45751;51.380;10.326;2022-07-23T06:14:48;20.85;;;10.27;;
59880;SDS011;45751;51.380;10.326;2022-07-23T06:17:16;22.27;;;8.77;;
59880;SDS011;45751;51.380;10.326;2022-07-23T06:19:43;26.05;;;9.32;;
59880;SDS011;45751;51.380;10.326;2022-07-23T06:22:10;23.15;;;9.35;;
59880;SDS011;45751;51.380;10.326;2022-07-23T06:24:37;18.95;;;8.20;;
59880;SDS011;45751;51.380;10.326;2022-07-23T06:27:04;21.23;;;8.57;;
59880;SDS011;45751;51.380;10.326;2022-07-23T06:29:31;22.58;;;9.15;;
59880;SDS011;45751;51.380;10.326;2022-07-23T06:31:58;21.23;;;9.15;;
59880;SDS011;45751;51.380;10.326;2022-07-23T06:34:25;25.88;;;9.05;;
59880;SDS011;45751;51.380;10.326;2022-07-23T06:36:54;17.80;;;7.72;;
59880;SDS011;45751;51.380;10.326;2022-07-23T06:39:21;23.95;;;8.95;;
59880;SDS011;45751;51.380;10.326;2022-07-23T06:41:48;21.98;;;9.65;;
59880;SDS011;45751;51.380;10.326;2022-07-23T06:44:17;22.80;;;8.80;;
59880;SDS011;45751;51.380;10.326;2022-07-23T06:46:46;20.55;;;7.80;;
59880;SDS011;45751;51.380;10.326;2022-07-23T06:49:14;24.20;;;8.50;;
59880;SDS011;45751;51.380;10.326;2022-07-23T06:51:41;23.58;;;8.98;;
59880;SDS011;45751;51.380;10.326;2022-07-23T06:54:08;19.38;;;8.00;;
59880;SDS011;45751;51.380;10.326;2022-07-23T06:56:35;18.83;;;7.97;;
59880;SDS011;45751;51.380;10.326;2022-07-23T06:59:02;20.17;;;8.40;;
59880;SDS011;45751;51.380;10.326;2022-07-23T07:01:29;20.83;;;7.90;;
59880;SDS011;45751;51.380;10.326;2022-07-23T07:03:56;21.25;;;9.00;;
59880;SDS011;45751;51.380;10.326;2022-07-23T07:06:23;19.55;;;8.85;;
59880;SDS011;45751;51.380;10.326;2022-07-23T07:08:50;17.27;;;9.00;;
59880;SDS011;45751;51.380;10.326;2022-07-23T07:11:17;21.27;;;8.98;;
59880;SDS011;45751;51.380;10.326;2022-07-23T07:13:44;19.05;;;9.05;;
59880;SDS011;45751;51.380;10.326;2022-07-23T07:16:11;21.23;;;8.85;;
59880;SDS011;45751;51.380;10.326;2022-07-23T07:18:41;20.73;;;9.40;;
59880;SDS011;45751;51.380;10.326;2022-07-23T07:21:08;18.20;;;7.25;;
59880;SDS011;45751;51.380;10.326;2022-07-23T07:23:34;16.58;;;7.68;;
59880;SDS011;45751;51.380;10.326;2022-07-23T07:26:01;20.08;;;9.25;;
59880;SDS011;45751;51.380;10.326;2022-07-23T07:28:28;23.98;;;8.43;;
59880;SDS011;45751;51.380;10.326;2022-07-23T07:30:55;19.00;;;8.25;;
59880;SDS011;45751;51.380;10.326;2022-07-23T07:33:22;17.33;;;7.93;;
59880;SDS011;45751;51.380;10.326;2022-07-23T07:35:49;20.20;;;8.75;;
59880;SDS011;45751;51.380;10.326;2022-07-23T07:38:16;22.40;;;8.05;;
59880;SDS011;45751;51.380;10.326;2022-07-23T07:40:43;16.17;;;8.13;;
59880;SDS011;45751;51.380;10.326;2022-07-23T07:43:10;19.70;;;8.02;;
59880;SDS011;45751;51.380;10.326;2022-07-23T07:45:36;20.67;;;8.80;;
59880;SDS011;45751;51.380;10.326;2022-07-23T07:48:04;18.98;;;8.60;;
59880;SDS011;45751;51.380;10.326;2022-07-23T07:50:31;19.30;;;9.05;;
59880;SDS011;45751;51.380;10.326;2022-07-23T07:52:59;14.25;;;7.82;;
59880;SDS011;45751;51.380;10.326;2022-07-23T07:55:27;21.05;;;9.85;;
59880;SDS011;45751;51.380;10.326;2022-07-23T07:57:55;20.52;;;8.70;;
59880;SDS011;45751;51.380;10.326;2022-07-23T08:00:22;18.88;;;8.38;;
59880;SDS011;45751;51.380;10.326;2022-07-23T08:02:50;18.45;;;7.55;;
59880;SDS011;45751;51.380;10.326;2022-07-23T08:05:23;20.63;;;9.52;;
59880;SDS011;45751;51.380;10.326;2022-07-23T08:07:53;19.27;;;8.88;;
59880;SDS011;45751;51.380;10.326;2022-07-23T08:10:24;17.90;;;8.75;;
59880;SDS011;45751;51.380;10.326;2022-07-23T08:12:53;15.25;;;7.40;;
59880;SDS011;45751;51.380;10.326;2022-07-23T08:15:23;19.73;;;7.80;;
59880;SDS011;45751;51.380;10.326;2022-07-23T08:17:51;20.80;;;7.68;;
59880;SDS011;45751;51.380;10.326;2022-07-23T08:20:19;21.27;;;8.63;;
59880;SDS011;45751;51.380;10.326;2022-07-23T08:25:30;16.17;;;7.57;;
59880;SDS011;45751;51.380;10.326;2022-07-23T08:28:02;16.27;;;8.48;;
59880;SDS011;45751;51.380;10.326;2022-07-23T08:30:32;15.67;;;7.63;;
59880;SDS011;45751;51.380;10.326;2022-07-23T08:33:03;16.52;;;7.30;;
59880;SDS011;45751;51.380;10.326;2022-07-23T08:35:58;19.05;;;7.65;;
59880;SDS011;45751;51.380;10.326;2022-07-23T08:38:26;14.77;;;7.03;;
59880;SDS011;45751;51.380;10.326;2022-07-23T08:40:55;12.80;;;6.13;;
59880;SDS011;45751;51.380;10.326;2022-07-23T08:43:26;13.77;;;6.78;;
59880;SDS011;45751;51.380;10.326;2022-07-23T08:45:56;16.08;;;6.57;;
59880;SDS011;45751;51.380;10.326;2022-07-23T08:48:27;16.60;;;7.13;;
59880;SDS011;45751;51.380;10.326;2022-07-23T08:50:57;16.98;;;7.70;;
59880;SDS011;45751;51.380;10.326;2022-07-23T08:53:27;14.48;;;6.50;;
59880;SDS011;45751;51.380;10.326;2022-07-23T08:55:57;16.75;;;8.13;;
59880;SDS011;45751;51.380;10.326;2022-07-23T08:58:25;16.98;;;7.75;;
59880;SDS011;45751;51.380;10.326;2022-07-23T09:00:53;20.35;;;8.23;;
59880;SDS011;45751;51.380;10.326;2022-07-23T09:05:54;12.27;;;6.43;;
59880;SDS011;45751;51.380;10.326;2022-07-23T09:08:25;13.30;;;5.88;;
59880;SDS011;45751;51.380;10.326;2022-07-23T09:11:02;11.88;;;5.80;;
59880;SDS011;45751;51.380;10.326;2022-07-23T09:16:13;15.38;;;6.10;;
59880;SDS011;45751;51.380;10.326;2022-07-23T09:18:54;13.45;;;6.13;;
59880;SDS011;45751;51.380;10.326;2022-07-23T09:24:00;12.60;;;5.50;;
59880;SDS011;45751;51.380;10.326;2022-07-23T09:29:04;16.55;;;6.90;;
59880;SDS011;45751;51.380;10.326;2022-07-23T09:34:19;11.88;;;5.57;;
59880;SDS011;45751;51.380;10.326;2022-07-23T09:36:52;15.48;;;5.30;;
59880;SDS011;45751;51.380;10.326;2022-07-23T09:45:01;12.40;;;5.90;;
59880;SDS011;45751;51.380;10.326;2022-07-23T09:47:31;11.73;;;5.65;;
59880;SDS011;45751;51.380;10.326;2022-07-23T09:52:33;11.30;;;5.32;;
59880;SDS011;45751;51.380;10.326;2022-07-23T09:55:03;11.27;;;5.37;;
59880;SDS011;45751;51.380;10.326;2022-07-23T09:57:32;9.98;;;5.38;;
59880;SDS011;45751;51.380;10.326;2022-07-23T10:00:06;15.57;;;6.35;;
59880;SDS011;45751;51.380;10.326;2022-07-23T10:02:35;12.02;;;5.45;;
59880;SDS011;45751;51.380;10.326;2022-07-23T10:05:32;12.52;;;5.70;;
59880;SDS011;45751;51.380;10.326;2022-07-23T10:08:19;14.20;;;5.90;;
59880;SDS011;45751;51.380;10.326;2022-07-23T10:11:09;13.63;;;5.07;;
59880;SDS011;45751;51.380;10.326;2022-07-23T10:13:49;12.23;;;5.72;;
59880;SDS011;45751;51.380;10.326;2022-07-23T10:16:23;11.85;;;5.90;;
59880;SDS011;45751;51.380;10.326;2022-07-23T10:18:53;11.23;;;5.38;;
59880;SDS011;45751;51.380;10.326;2022-07-23T10:30:02;13.00;;;5.95;;
59880;SDS011;45751;51.380;10.326;2022-07-23T10:35:11;14.80;;;5.18;;
59880;SDS011;45751;51.380;10.326;2022-07-23T10:37:44;13.40;;;5.28;;
59880;SDS011;45751;51.380;10.326;2022-07-23T10:42:44;10.48;;;5.25;;
59880;SDS011;45751;51.380;10.326;2022-07-23T10:45:22;12.95;;;5.22;;
59880;SDS011;45751;51.380;10.326;2022-07-23T10:48:11;11.70;;;5.88;;
59880;SDS011;45751;51.380;10.326;2022-07-23T10:50:39;14.15;;;5.35;;
59880;SDS011;45751;51.380;10.326;2022-07-23T10:55:49;13.50;;;5.63;;
59880;SDS011;45751;51.380;10.326;2022-07-23T10:58:18;12.35;;;5.30;;
59880;SDS011;45751;51.380;10.326;2022-07-23T11:00:47;13.90;;;5.20;;
59880;SDS011;45751;51.380;10.326;2022-07-23T11:03:27;11.02;;;5.20;;
59880;SDS011;45751;51.380;10.326;2022-07-23T11:05:54;12.63;;;5.32;;
59880;SDS011;45751;51.380;10.326;2022-07-23T11:08:21;12.80;;;5.50;;
59880;SDS011;45751;51.380;10.326;2022-07-23T11:10:53;11.57;;;5.47;;
59880;SDS011;45751;51.380;10.326;2022-07-23T11:13:30;11.35;;;5.45;;
59880;SDS011;45751;51.380;10.326;2022-07-23T11:31:55;10.90;;;5.07;;
59880;SDS011;45751;51.380;10.326;2022-07-23T11:36:58;9.05;;;4.40;;
59880;SDS011;45751;51.380;10.326;2022-07-23T11:39:27;11.70;;;4.60;;
59880;SDS011;45751;51.380;10.326;2022-07-23T11:41:55;10.25;;;4.43;;
59880;SDS011;45751;51.380;10.326;2022-07-23T11:44:24;10.75;;;4.93;;
59880;SDS011;45751;51.380;10.326;2022-07-23T11:47:03;12.00;;;5.25;;
59880;SDS011;45751;51.380;10.326;2022-07-23T11:49:35;11.05;;;4.57;;
59880;SDS011;45751;51.380;10.326;2022-07-23T11:54:36;10.05;;;4.88;;
59880;SDS011;45751;51.380;10.326;2022-07-23T11:57:12;13.80;;;4.93;;
59880;SDS011;45751;51.380;10.326;2022-07-23T11:59:39;9.73;;;4.22;;
59880;SDS011;45751;51.380;10.326;2022-07-23T12:02:09;9.23;;;4.00;;
59880;SDS011;45751;51.380;10.326;2022-07-23T12:04:41;11.38;;;4.85;;
59880;SDS011;45751;51.380;10.326;2022-07-23T12:07:27;10.35;;;4.28;;
59880;SDS011;45751;51.380;10.326;2022-07-23T12:12:38;11.05;;;4.30;;
59880;SDS011;45751;51.380;10.326;2022-07-23T12:15:11;12.43;;;4.78;;
59880;SDS011;45751;51.380;10.326;2022-07-23T12:17:40;10.93;;;4.85;;
59880;SDS011;45751;51.380;10.326;2022-07-23T12:20:17;9.05;;;4.38;;
59880;SDS011;45751;51.380;10.326;2022-07-23T12:22:48;9.55;;;3.88;;
59880;SDS011;45751;51.380;10.326;2022-07-23T12:25:17;10.73;;;4.05;;
59880;SDS011;45751;51.380;10.326;2022-07-23T12:28:05;9.00;;;4.00;;
59880;SDS011;45751;51.380;10.326;2022-07-23T12:30:37;9.40;;;4.10;;
59880;SDS011;45751;51.380;10.326;2022-07-23T12:33:21;11.52;;;4.63;;
59880;SDS011;45751;51.380;10.326;2022-07-23T12:36:03;9.60;;;4.72;;
59880;SDS011;45751;51.380;10.326;2022-07-23T12:38:39;11.80;;;4.10;;
59880;SDS011;45751;51.380;10.326;2022-07-23T12:41:12;9.82;;;4.00;;
59880;SDS011;45751;51.380;10.326;2022-07-23T12:43:40;8.85;;;4.20;;
59880;SDS011;45751;51.380;10.326;2022-07-23T12:48:39;9.75;;;4.00;;
59880;SDS011;45751;51.380;10.326;2022-07-23T12:51:28;10.88;;;4.95;;
59880;SDS011;45751;51.380;10.326;2022-07-23T12:56:33;8.88;;;4.07;;
59880;SDS011;45751;51.380;10.326;2022-07-23T13:01:34;10.57;;;4.80;;
59880;SDS011;45751;51.380;10.326;2022-07-23T13:09:11;7.78;;;3.85;;
59880;SDS011;45751;51.380;10.326;2022-07-23T13:11:41;8.90;;;3.90;;
59880;SDS011;45751;51.380;10.326;2022-07-23T13:14:09;8.02;;;4.28;;
59880;SDS011;45751;51.380;10.326;2022-07-23T13:16:37;9.75;;;4.10;;
59880;SDS011;45751;51.380;10.326;2022-07-23T13:19:05;8.57;;;4.05;;
59880;SDS011;45751;51.380;10.326;2022-07-23T13:21:37;11.77;;;4.45;;
59880;SDS011;45751;51.380;10.326;2022-07-23T13:24:04;8.32;;;3.90;;
59880;SDS011;45751;51.380;10.326;2022-07-23T13:26:34;8.32;;;3.80;;
59880;SDS011;45751;51.380;10.326;2022-07-23T13:29:03;8.13;;;3.88;;
59880;SDS011;45751;51.380;10.326;2022-07-23T13:31:35;13.40;;;4.30;;
59880;SDS011;45751;51.380;10.326;2022-07-23T13:34:04;9.45;;;3.72;;
59880;SDS011;45751;51.380;10.326;2022-07-23T13:36:33;8.48;;;4.20;;
59880;SDS011;45751;51.380;10.326;2022-07-23T13:39:01;8.85;;;3.95;;
59880;SDS011;45751;51.380;10.326;2022-07-23T13:41:30;7.50;;;3.47;;
59880;SDS011;45751;51.380;10.326;2022-07-23T13:43:57;9.73;;;4.22;;
59880;SDS011;45751;51.380;10.326;2022-07-23T13:46:24;10.23;;;4.25;;
59880;SDS011;45751;51.380;10.326;2022-07-23T13:48:52;9.27;;;3.88;;
59880;SDS011;45751;51.380;10.326;2022-07-23T13:51:19;8.45;;;3.97;;
59880;SDS011;45751;51.380;10.326;2022-07-23T13:53:47;9.20;;;4.03;;
59880;SDS011;45751;51.380;10.326;2022-07-23T13:56:15;9.18;;;3.97;;
59880;SDS011;45751;51.380;10.326;2022-07-23T13:58:42;8.48;;;3.78;;
59880;SDS011;45751;51.380;10.326;2022-07-23T14:01:09;8.40;;;4.07;;
59880;SDS011;45751;51.380;10.326;2022-07-23T14:03:36;9.55;;;3.75;;
59880;SDS011;45751;51.380;10.326;2022-07-23T14:06:03;8.40;;;4.05;;
59880;SDS011;45751;51.380;10.326;2022-07-23T14:08:41;8.98;;;3.55;;
59880;SDS011;45751;51.380;10.326;2022-07-23T14:11:09;9.20;;;3.85;;
59880;SDS011;45751;51.380;10.326;2022-07-23T14:13:37;10.50;;;4.00;;
59880;SDS011;45751;51.380;10.326;2022-07-23T14:16:04;8.60;;;4.22;;
59880;SDS011;45751;51.380;10.326;2022-07-23T14:18:31;9.77;;;4.07;;
59880;SDS011;45751;51.380;10.326;2022-07-23T14:20:59;7.72;;;3.72;;
59880;SDS011;45751;51.380;10.326;2022-07-23T14:23:27;7.95;;;3.72;;
59880;SDS011;45751;51.380;10.326;2022-07-23T14:25:55;11.25;;;4.15;;
59880;SDS011;45751;51.380;10.326;2022-07-23T14:28:23;9.20;;;4.13;;
59880;SDS011;45751;51.380;10.326;2022-07-23T14:30:50;10.80;;;4.05;;
59880;SDS011;45751;51.380;10.326;2022-07-23T14:33:17;8.88;;;4.03;;
59880;SDS011;45751;51.380;10.326;2022-07-23T14:35:46;8.63;;;3.92;;
59880;SDS011;45751;51.380;10.326;2022-07-23T14:38:13;7.78;;;3.75;;
59880;SDS011;45751;51.380;10.326;2022-07-23T14:40:41;10.32;;;3.92;;
59880;SDS011;45751;51.380;10.326;2022-07-23T14:43:08;9.63;;;3.13;;
59880;SDS011;45751;51.380;10.326;2022-07-23T14:45:37;10.75;;;4.03;;
59880;SDS011;45751;51.380;10.326;2022-07-23T14:48:05;8.35;;;3.58;;
59880;SDS011;45751;51.380;10.326;2022-07-23T14:50:33;9.57;;;4.07;;
59880;SDS011;45751;51.380;10.326;2022-07-23T14:53:00;8.85;;;3.42;;
59880;SDS011;45751;51.380;10.326;2022-07-23T14:55:27;10.43;;;3.95;;
59880;SDS011;45751;51.380;10.326;2022-07-23T14:57:54;8.88;;;3.75;;
59880;SDS011;45751;51.380;10.326;2022-07-23T15:00:21;7.90;;;3.30;;
59880;SDS011;45751;51.380;10.326;2022-07-23T15:02:49;7.53;;;3.38;;
59880;SDS011;45751;51.380;10.326;2022-07-23T15:05:20;7.20;;;3.45;;
59880;SDS011;45751;51.380;10.326;2022-07-23T15:07:48;10.68;;;3.03;;
59880;SDS011;45751;51.380;10.326;2022-07-23T15:10:15;8.07;;;3.35;;
59880;SDS011;45751;51.380;10.326;2022-07-23T15:12:47;7.05;;;2.85;;
59880;SDS011;45751;51.380;10.326;2022-07-23T15:15:16;7.45;;;2.88;;
59880;SDS011;45751;51.380;10.326;2022-07-23T15:17:44;7.93;;;3.10;;
59880;SDS011;45751;51.380;10.326;2022-07-23T15:20:11;9.25;;;3.42;;
59880;SDS011;45751;51.380;10.326;2022-07-23T15:22:40;7.53;;;2.80;;
59880;SDS011;45751;51.380;10.326;2022-07-23T15:25:07;8.85;;;3.30;;
59880;SDS011;45751;51.380;10.326;2022-07-23T15:27:37;6.30;;;2.75;;
59880;SDS011;45751;51.380;10.326;2022-07-23T15:30:04;6.88;;;3.17;;
59880;SDS011;45751;51.380;10.326;2022-07-23T15:32:33;7.15;;;3.20;;
59880;SDS011;45751;51.380;10.326;2022-07-23T15:35:00;7.45;;;3.15;;
59880;SDS011;45751;51.380;10.326;2022-07-23T15:37:28;6.97;;;2.40;;
59880;SDS011;45751;51.380;10.326;2022-07-23T15:39:56;6.40;;;2.58;;
59880;SDS011;45751;51.380;10.326;2022-07-23T15:42:22;7.57;;;3.25;;
59880;SDS011;45751;51.380;10.326;2022-07-23T15:44:50;7.30;;;3.33;;
59880;SDS011;45751;51.380;10.326;2022-07-23T15:47:17;7.18;;;3.05;;
59880;SDS011;45751;51.380;10.326;2022-07-23T15:49:45;6.78;;;2.92;;
59880;SDS011;45751;51.380;10.326;2022-07-23T15:52:12;7.15;;;2.97;;